sensor_id;sensor_type;location;lat;lon;timestamp;P1;durP1;ratioP1;P2;durP2;ratioP2
5795;SDS011;2924;51.458;7.046;2022-08-03T00:01:37;6.73;;;2.60;;
5795;SDS011;2924;51.458;7.046;2022-08-03T00:04:05;3.20;;;2.67;;
5795;SDS011;2924;51.458;7.046;2022-08-03T00:06:32;5.37;;;2.30;;
5795;SDS011;2924;51.458;7.046;2022-08-03T00:08:58;6.23;;;2.63;;
5795;SDS011;2924;51.458;7.046;2022-08-03T00:11:24;14.67;;;2.20;;
5795;SDS011;2924;51.458;7.046;2022-08-03T00:14:09;2.67;;;2.43;;
5795;SDS011;2924;51.458;7.046;2022-08-03T00:16:35;7.50;;;2.00;;
5795;SDS011;2924;51.458;7.046;2022-08-03T00:19:01;6.33;;;2.40;;
5795;SDS011;2924;51.458;7.046;2022-08-03T00:21:27;4.23;;;2.80;;
5795;SDS011;2924;51.458;7.046;2022-08-03T00:23:53;3.00;;;2.13;;
5795;SDS011;2924;51.458;7.046;2022-08-03T00:26:19;3.30;;;2.63;;
5795;SDS011;2924;51.458;7.046;2022-08-03T00:28:45;5.23;;;2.27;;
5795;SDS011;2924;51.458;7.046;2022-08-03T00:31:11;2.70;;;2.50;;
5795;SDS011;2924;51.458;7.046;2022-08-03T00:33:37;2.40;;;2.20;;
5795;SDS011;2924;51.458;7.046;2022-08-03T00:36:02;4.80;;;2.30;;
5795;SDS011;2924;51.458;7.046;2022-08-03T00:38:28;5.00;;;2.60;;
5795;SDS011;2924;51.458;7.046;2022-08-03T00:40:54;4.20;;;2.10;;
5795;SDS011;2924;51.458;7.046;2022-08-03T00:43:23;3.80;;;2.37;;
5795;SDS011;2924;51.458;7.046;2022-08-03T00:45:50;13.00;;;2.60;;
5795;SDS011;2924;51.458;7.046;2022-08-03T00:48:16;2.80;;;2.10;;
5795;SDS011;2924;51.458;7.046;2022-08-03T00:50:42;2.83;;;2.10;;
5795;SDS011;2924;51.458;7.046;2022-08-03T00:53:09;4.03;;;2.80;;
5795;SDS011;2924;51.458;7.046;2022-08-03T00:55:39;7.90;;;2.43;;
5795;SDS011;2924;51.458;7.046;2022-08-03T00:58:06;11.07;;;5.13;;
5795;SDS011;2924;51.458;7.046;2022-08-03T01:00:34;3.60;;;2.03;;
5795;SDS011;2924;51.458;7.046;2022-08-03T01:03:02;7.73;;;3.00;;
5795;SDS011;2924;51.458;7.046;2022-08-03T01:05:29;5.50;;;2.63;;
5795;SDS011;2924;51.458;7.046;2022-08-03T01:08:11;4.60;;;2.40;;
5795;SDS011;2924;51.458;7.046;2022-08-03T01:10:44;2.60;;;2.40;;
5795;SDS011;2924;51.458;7.046;2022-08-03T01:13:20;3.93;;;2.70;;
5795;SDS011;2924;51.458;7.046;2022-08-03T01:18:48;5.50;;;2.50;;
5795;SDS011;2924;51.458;7.046;2022-08-03T01:27:24;4.60;;;2.80;;
5795;SDS011;2924;51.458;7.046;2022-08-03T01:30:14;7.87;;;2.47;;
5795;SDS011;2924;51.458;7.046;2022-08-03T01:32:42;3.87;;;2.20;;
5795;SDS011;2924;51.458;7.046;2022-08-03T01:35:26;7.60;;;2.40;;
5795;SDS011;2924;51.458;7.046;2022-08-03T01:38:00;3.73;;;2.57;;
5795;SDS011;2924;51.458;7.046;2022-08-03T01:40:28;4.33;;;2.43;;
5795;SDS011;2924;51.458;7.046;2022-08-03T01:42:57;3.00;;;2.30;;
5795;SDS011;2924;51.458;7.046;2022-08-03T01:45:26;16.00;;;2.50;;
5795;SDS011;2924;51.458;7.046;2022-08-03T01:47:52;5.30;;;2.47;;
5795;SDS011;2924;51.458;7.046;2022-08-03T01:50:24;13.10;;;3.70;;
5795;SDS011;2924;51.458;7.046;2022-08-03T01:52:53;8.60;;;2.90;;
5795;SDS011;2924;51.458;7.046;2022-08-03T01:55:21;4.60;;;2.63;;
5795;SDS011;2924;51.458;7.046;2022-08-03T01:57:48;3.13;;;2.13;;
5795;SDS011;2924;51.458;7.046;2022-08-03T02:00:17;3.40;;;2.60;;
5795;SDS011;2924;51.458;7.046;2022-08-03T02:02:43;3.47;;;3.17;;
5795;SDS011;2924;51.458;7.046;2022-08-03T02:05:13;5.27;;;2.80;;
5795;SDS011;2924;51.458;7.046;2022-08-03T02:07:40;5.70;;;2.83;;
5795;SDS011;2924;51.458;7.046;2022-08-03T02:10:07;3.83;;;2.60;;
5795;SDS011;2924;51.458;7.046;2022-08-03T02:12:35;5.40;;;3.20;;
5795;SDS011;2924;51.458;7.046;2022-08-03T02:15:03;6.93;;;3.73;;
5795;SDS011;2924;51.458;7.046;2022-08-03T02:17:31;4.97;;;3.40;;
5795;SDS011;2924;51.458;7.046;2022-08-03T02:19:58;2.87;;;2.63;;
5795;SDS011;2924;51.458;7.046;2022-08-03T02:22:25;2.60;;;2.37;;
5795;SDS011;2924;51.458;7.046;2022-08-03T02:24:53;12.03;;;2.80;;
5795;SDS011;2924;51.458;7.046;2022-08-03T02:27:19;5.83;;;3.23;;
5795;SDS011;2924;51.458;7.046;2022-08-03T02:29:48;6.20;;;3.10;;
5795;SDS011;2924;51.458;7.046;2022-08-03T02:32:19;7.53;;;2.53;;
5795;SDS011;2924;51.458;7.046;2022-08-03T02:34:50;7.30;;;3.10;;
5795;SDS011;2924;51.458;7.046;2022-08-03T02:37:19;6.00;;;2.93;;
5795;SDS011;2924;51.458;7.046;2022-08-03T02:39:49;3.50;;;2.70;;
5795;SDS011;2924;51.458;7.046;2022-08-03T02:42:20;2.70;;;2.50;;
5795;SDS011;2924;51.458;7.046;2022-08-03T02:44:47;3.33;;;2.20;;
5795;SDS011;2924;51.458;7.046;2022-08-03T02:47:15;6.20;;;2.97;;
5795;SDS011;2924;51.458;7.046;2022-08-03T02:49:45;3.70;;;2.80;;
5795;SDS011;2924;51.458;7.046;2022-08-03T02:52:12;3.77;;;2.77;;
5795;SDS011;2924;51.458;7.046;2022-08-03T02:54:39;4.93;;;2.60;;
5795;SDS011;2924;51.458;7.046;2022-08-03T02:57:06;4.97;;;2.03;;
5795;SDS011;2924;51.458;7.046;2022-08-03T02:59:33;9.93;;;2.63;;
5795;SDS011;2924;51.458;7.046;2022-08-03T03:01:59;4.57;;;3.10;;
5795;SDS011;2924;51.458;7.046;2022-08-03T03:04:27;7.73;;;3.20;;
5795;SDS011;2924;51.458;7.046;2022-08-03T03:06:54;3.10;;;2.60;;
5795;SDS011;2924;51.458;7.046;2022-08-03T03:09:22;3.50;;;2.27;;
5795;SDS011;2924;51.458;7.046;2022-08-03T03:11:48;11.13;;;3.17;;
5795;SDS011;2924;51.458;7.046;2022-08-03T03:14:16;5.33;;;2.93;;
5795;SDS011;2924;51.458;7.046;2022-08-03T03:16:44;19.50;;;3.20;;
5795;SDS011;2924;51.458;7.046;2022-08-03T03:19:13;2.90;;;2.63;;
5795;SDS011;2924;51.458;7.046;2022-08-03T03:21:42;9.53;;;2.70;;
5795;SDS011;2924;51.458;7.046;2022-08-03T03:24:08;6.20;;;3.07;;
5795;SDS011;2924;51.458;7.046;2022-08-03T03:26:34;5.80;;;2.87;;
5795;SDS011;2924;51.458;7.046;2022-08-03T03:29:00;7.53;;;3.50;;
5795;SDS011;2924;51.458;7.046;2022-08-03T03:31:26;8.40;;;3.73;;
5795;SDS011;2924;51.458;7.046;2022-08-03T03:33:52;14.97;;;3.50;;
5795;SDS011;2924;51.458;7.046;2022-08-03T03:36:20;4.80;;;2.80;;
5795;SDS011;2924;51.458;7.046;2022-08-03T03:38:46;6.53;;;3.60;;
5795;SDS011;2924;51.458;7.046;2022-08-03T03:41:12;10.27;;;3.17;;
5795;SDS011;2924;51.458;7.046;2022-08-03T03:43:38;7.63;;;3.60;;
5795;SDS011;2924;51.458;7.046;2022-08-03T03:46:03;8.30;;;3.47;;
5795;SDS011;2924;51.458;7.046;2022-08-03T03:48:29;4.37;;;3.10;;
5795;SDS011;2924;51.458;7.046;2022-08-03T03:50:55;11.27;;;3.17;;
5795;SDS011;2924;51.458;7.046;2022-08-03T03:53:21;8.07;;;3.63;;
5795;SDS011;2924;51.458;7.046;2022-08-03T03:55:47;6.47;;;3.47;;
5795;SDS011;2924;51.458;7.046;2022-08-03T03:58:13;12.83;;;4.10;;
5795;SDS011;2924;51.458;7.046;2022-08-03T04:00:39;7.50;;;3.77;;
5795;SDS011;2924;51.458;7.046;2022-08-03T04:03:06;6.13;;;3.30;;
5795;SDS011;2924;51.458;7.046;2022-08-03T04:05:34;9.83;;;3.67;;
5795;SDS011;2924;51.458;7.046;2022-08-03T04:08:18;4.73;;;2.90;;
5795;SDS011;2924;51.458;7.046;2022-08-03T04:11:13;13.13;;;4.30;;
5795;SDS011;2924;51.458;7.046;2022-08-03T04:14:18;7.80;;;3.70;;
5795;SDS011;2924;51.458;7.046;2022-08-03T04:16:55;10.37;;;3.63;;
5795;SDS011;2924;51.458;7.046;2022-08-03T04:19:29;13.20;;;4.23;;
5795;SDS011;2924;51.458;7.046;2022-08-03T04:22:04;9.80;;;4.30;;
5795;SDS011;2924;51.458;7.046;2022-08-03T04:24:34;19.00;;;4.57;;
5795;SDS011;2924;51.458;7.046;2022-08-03T04:27:28;8.67;;;3.77;;
5795;SDS011;2924;51.458;7.046;2022-08-03T04:29:58;12.53;;;3.67;;
5795;SDS011;2924;51.458;7.046;2022-08-03T04:32:28;10.00;;;4.50;;
5795;SDS011;2924;51.458;7.046;2022-08-03T04:34:54;8.10;;;3.40;;
5795;SDS011;2924;51.458;7.046;2022-08-03T04:37:25;10.43;;;4.47;;
5795;SDS011;2924;51.458;7.046;2022-08-03T04:40:00;8.87;;;3.50;;
5795;SDS011;2924;51.458;7.046;2022-08-03T04:42:27;5.73;;;3.73;;
5795;SDS011;2924;51.458;7.046;2022-08-03T04:44:55;14.67;;;3.87;;
5795;SDS011;2924;51.458;7.046;2022-08-03T04:47:22;20.37;;;4.57;;
5795;SDS011;2924;51.458;7.046;2022-08-03T04:49:48;8.87;;;4.40;;
5795;SDS011;2924;51.458;7.046;2022-08-03T04:52:14;12.60;;;3.83;;
5795;SDS011;2924;51.458;7.046;2022-08-03T04:54:41;10.33;;;4.40;;
5795;SDS011;2924;51.458;7.046;2022-08-03T04:57:09;6.43;;;3.20;;
5795;SDS011;2924;51.458;7.046;2022-08-03T04:59:35;7.03;;;3.50;;
5795;SDS011;2924;51.458;7.046;2022-08-03T05:02:01;10.93;;;4.40;;
5795;SDS011;2924;51.458;7.046;2022-08-03T05:04:26;6.47;;;3.47;;
5795;SDS011;2924;51.458;7.046;2022-08-03T05:06:52;11.70;;;4.37;;
5795;SDS011;2924;51.458;7.046;2022-08-03T05:09:18;6.47;;;4.10;;
5795;SDS011;2924;51.458;7.046;2022-08-03T05:11:44;15.13;;;3.97;;
5795;SDS011;2924;51.458;7.046;2022-08-03T05:14:10;12.27;;;3.60;;
5795;SDS011;2924;51.458;7.046;2022-08-03T05:16:35;9.77;;;3.87;;
5795;SDS011;2924;51.458;7.046;2022-08-03T05:19:01;8.30;;;4.10;;
5795;SDS011;2924;51.458;7.046;2022-08-03T05:21:27;6.13;;;4.23;;
5795;SDS011;2924;51.458;7.046;2022-08-03T05:23:53;7.50;;;3.90;;
5795;SDS011;2924;51.458;7.046;2022-08-03T05:26:18;12.03;;;4.63;;
5795;SDS011;2924;51.458;7.046;2022-08-03T05:28:44;6.70;;;4.00;;
5795;SDS011;2924;51.458;7.046;2022-08-03T05:31:10;11.03;;;4.60;;
5795;SDS011;2924;51.458;7.046;2022-08-03T05:33:37;10.07;;;4.70;;
5795;SDS011;2924;51.458;7.046;2022-08-03T05:36:03;8.93;;;4.07;;
5795;SDS011;2924;51.458;7.046;2022-08-03T05:38:30;13.43;;;4.17;;
5795;SDS011;2924;51.458;7.046;2022-08-03T05:40:56;9.70;;;4.43;;
5795;SDS011;2924;51.458;7.046;2022-08-03T05:43:22;10.80;;;5.40;;
5795;SDS011;2924;51.458;7.046;2022-08-03T05:45:48;13.53;;;4.70;;
5795;SDS011;2924;51.458;7.046;2022-08-03T05:48:14;6.53;;;4.20;;
5795;SDS011;2924;51.458;7.046;2022-08-03T05:50:39;7.40;;;4.40;;
5795;SDS011;2924;51.458;7.046;2022-08-03T05:53:05;8.13;;;4.37;;
5795;SDS011;2924;51.458;7.046;2022-08-03T05:55:31;7.23;;;4.40;;
5795;SDS011;2924;51.458;7.046;2022-08-03T05:57:56;4.23;;;3.83;;
5795;SDS011;2924;51.458;7.046;2022-08-03T06:00:22;6.60;;;3.87;;
5795;SDS011;2924;51.458;7.046;2022-08-03T06:02:48;10.70;;;4.53;;
5795;SDS011;2924;51.458;7.046;2022-08-03T06:05:13;6.87;;;3.47;;
5795;SDS011;2924;51.458;7.046;2022-08-03T06:07:39;5.67;;;3.70;;
5795;SDS011;2924;51.458;7.046;2022-08-03T06:10:05;7.23;;;3.70;;
5795;SDS011;2924;51.458;7.046;2022-08-03T06:12:31;8.73;;;4.43;;
5795;SDS011;2924;51.458;7.046;2022-08-03T06:15:00;6.80;;;3.97;;
5795;SDS011;2924;51.458;7.046;2022-08-03T06:17:27;10.57;;;4.10;;
5795;SDS011;2924;51.458;7.046;2022-08-03T06:19:53;5.73;;;3.70;;
5795;SDS011;2924;51.458;7.046;2022-08-03T06:22:19;6.67;;;3.67;;
5795;SDS011;2924;51.458;7.046;2022-08-03T06:24:44;9.43;;;3.40;;
5795;SDS011;2924;51.458;7.046;2022-08-03T06:27:10;5.60;;;3.40;;
5795;SDS011;2924;51.458;7.046;2022-08-03T06:29:36;10.43;;;3.77;;
5795;SDS011;2924;51.458;7.046;2022-08-03T06:32:02;11.70;;;3.07;;
5795;SDS011;2924;51.458;7.046;2022-08-03T06:34:27;7.67;;;3.93;;
5795;SDS011;2924;51.458;7.046;2022-08-03T06:36:53;7.30;;;3.90;;
5795;SDS011;2924;51.458;7.046;2022-08-03T06:39:20;8.60;;;4.20;;
5795;SDS011;2924;51.458;7.046;2022-08-03T06:41:46;8.53;;;3.30;;
5795;SDS011;2924;51.458;7.046;2022-08-03T06:44:11;9.80;;;3.80;;
5795;SDS011;2924;51.458;7.046;2022-08-03T06:46:37;5.60;;;3.20;;
5795;SDS011;2924;51.458;7.046;2022-08-03T06:49:03;8.90;;;3.97;;
5795;SDS011;2924;51.458;7.046;2022-08-03T06:51:30;12.73;;;3.37;;
5795;SDS011;2924;51.458;7.046;2022-08-03T06:53:56;8.10;;;3.33;;
5795;SDS011;2924;51.458;7.046;2022-08-03T06:56:21;3.50;;;2.80;;
5795;SDS011;2924;51.458;7.046;2022-08-03T06:58:47;15.07;;;3.33;;
5795;SDS011;2924;51.458;7.046;2022-08-03T07:01:13;3.60;;;2.78;;
5795;SDS011;2924;51.458;7.046;2022-08-03T07:03:39;6.40;;;3.22;;
5795;SDS011;2924;51.458;7.046;2022-08-03T07:06:05;10.55;;;3.65;;
5795;SDS011;2924;51.458;7.046;2022-08-03T07:08:31;6.32;;;3.17;;
5795;SDS011;2924;51.458;7.046;2022-08-03T07:10:56;8.55;;;2.63;;
5795;SDS011;2924;51.458;7.046;2022-08-03T07:13:22;6.22;;;2.90;;
5795;SDS011;2924;51.458;7.046;2022-08-03T07:15:48;3.88;;;2.10;;
5795;SDS011;2924;51.458;7.046;2022-08-03T07:18:13;7.15;;;2.38;;
5795;SDS011;2924;51.458;7.046;2022-08-03T07:20:39;2.60;;;2.40;;
5795;SDS011;2924;51.458;7.046;2022-08-03T07:23:05;8.82;;;2.50;;
5795;SDS011;2924;51.458;7.046;2022-08-03T07:25:31;6.65;;;2.67;;
5795;SDS011;2924;51.458;7.046;2022-08-03T07:27:56;8.18;;;2.17;;
5795;SDS011;2924;51.458;7.046;2022-08-03T07:30:22;5.55;;;2.35;;
5795;SDS011;2924;51.458;7.046;2022-08-03T07:32:48;4.60;;;2.17;;
5795;SDS011;2924;51.458;7.046;2022-08-03T07:35:14;3.60;;;2.45;;
5795;SDS011;2924;51.458;7.046;2022-08-03T07:37:39;2.90;;;1.95;;
5795;SDS011;2924;51.458;7.046;2022-08-03T07:40:05;2.42;;;2.10;;
5795;SDS011;2924;51.458;7.046;2022-08-03T07:42:31;4.50;;;2.20;;
5795;SDS011;2924;51.458;7.046;2022-08-03T07:44:57;6.20;;;2.28;;
5795;SDS011;2924;51.458;7.046;2022-08-03T07:47:25;8.60;;;2.80;;
5795;SDS011;2924;51.458;7.046;2022-08-03T07:49:52;4.78;;;2.10;;
5795;SDS011;2924;51.458;7.046;2022-08-03T07:52:18;3.53;;;2.15;;
5795;SDS011;2924;51.458;7.046;2022-08-03T07:55:07;7.57;;;2.47;;
5795;SDS011;2924;51.458;7.046;2022-08-03T07:57:34;3.58;;;2.45;;
5795;SDS011;2924;51.458;7.046;2022-08-03T08:00:00;4.63;;;1.80;;
5795;SDS011;2924;51.458;7.046;2022-08-03T08:02:27;7.60;;;1.80;;
5795;SDS011;2924;51.458;7.046;2022-08-03T08:04:53;3.75;;;2.20;;
5795;SDS011;2924;51.458;7.046;2022-08-03T08:07:19;3.65;;;1.92;;
5795;SDS011;2924;51.458;7.046;2022-08-03T08:09:44;4.93;;;1.80;;
5795;SDS011;2924;51.458;7.046;2022-08-03T08:12:10;4.93;;;1.75;;
5795;SDS011;2924;51.458;7.046;2022-08-03T08:14:36;3.47;;;1.60;;
5795;SDS011;2924;51.458;7.046;2022-08-03T08:17:03;8.60;;;2.03;;
5795;SDS011;2924;51.458;7.046;2022-08-03T08:19:28;9.18;;;2.35;;
5795;SDS011;2924;51.458;7.046;2022-08-03T08:21:54;6.05;;;1.83;;
5795;SDS011;2924;51.458;7.046;2022-08-03T08:24:20;6.53;;;2.00;;
5795;SDS011;2924;51.458;7.046;2022-08-03T08:26:46;3.33;;;1.45;;
5795;SDS011;2924;51.458;7.046;2022-08-03T08:29:11;4.55;;;1.55;;
5795;SDS011;2924;51.458;7.046;2022-08-03T08:31:37;7.78;;;1.35;;
5795;SDS011;2924;51.458;7.046;2022-08-03T08:34:03;5.80;;;1.65;;
5795;SDS011;2924;51.458;7.046;2022-08-03T08:36:34;7.93;;;1.88;;
5795;SDS011;2924;51.458;7.046;2022-08-03T08:39:00;5.10;;;1.85;;
5795;SDS011;2924;51.458;7.046;2022-08-03T08:41:26;3.42;;;1.63;;
5795;SDS011;2924;51.458;7.046;2022-08-03T08:43:52;7.32;;;1.73;;
5795;SDS011;2924;51.458;7.046;2022-08-03T08:46:19;11.98;;;1.17;;
5795;SDS011;2924;51.458;7.046;2022-08-03T08:48:45;3.92;;;2.25;;
5795;SDS011;2924;51.458;7.046;2022-08-03T08:51:12;2.65;;;2.42;;
5795;SDS011;2924;51.458;7.046;2022-08-03T08:53:40;4.20;;;1.73;;
5795;SDS011;2924;51.458;7.046;2022-08-03T08:56:07;3.25;;;1.80;;
5795;SDS011;2924;51.458;7.046;2022-08-03T08:58:41;4.80;;;1.88;;
5795;SDS011;2924;51.458;7.046;2022-08-03T09:01:18;3.70;;;1.77;;
5795;SDS011;2924;51.458;7.046;2022-08-03T09:03:45;7.88;;;1.95;;
5795;SDS011;2924;51.458;7.046;2022-08-03T09:06:11;5.00;;;1.88;;
5795;SDS011;2924;51.458;7.046;2022-08-03T09:08:37;3.67;;;1.40;;
5795;SDS011;2924;51.458;7.046;2022-08-03T09:11:02;3.72;;;1.88;;
5795;SDS011;2924;51.458;7.046;2022-08-03T09:13:28;3.33;;;2.03;;
5795;SDS011;2924;51.458;7.046;2022-08-03T09:18:44;2.45;;;2.20;;
5795;SDS011;2924;51.458;7.046;2022-08-03T09:21:12;7.40;;;1.55;;
5795;SDS011;2924;51.458;7.046;2022-08-03T09:23:46;6.55;;;1.73;;
5795;SDS011;2924;51.458;7.046;2022-08-03T09:26:21;2.28;;;1.90;;
5795;SDS011;2924;51.458;7.046;2022-08-03T09:29:01;6.05;;;1.92;;
5795;SDS011;2924;51.458;7.046;2022-08-03T09:31:39;7.82;;;1.83;;
5795;SDS011;2924;51.458;7.046;2022-08-03T09:34:08;1.65;;;1.30;;
5795;SDS011;2924;51.458;7.046;2022-08-03T09:36:40;3.30;;;1.90;;
5795;SDS011;2924;51.458;7.046;2022-08-03T09:39:07;4.38;;;1.85;;
5795;SDS011;2924;51.458;7.046;2022-08-03T09:41:38;7.75;;;1.90;;
5795;SDS011;2924;51.458;7.046;2022-08-03T09:44:08;2.97;;;2.05;;
5795;SDS011;2924;51.458;7.046;2022-08-03T09:46:51;3.35;;;1.95;;
5795;SDS011;2924;51.458;7.046;2022-08-03T09:49:20;7.22;;;2.40;;
5795;SDS011;2924;51.458;7.046;2022-08-03T09:51:46;5.38;;;1.90;;
5795;SDS011;2924;51.458;7.046;2022-08-03T09:54:12;3.75;;;2.25;;
5795;SDS011;2924;51.458;7.046;2022-08-03T09:56:50;6.25;;;1.88;;
5795;SDS011;2924;51.458;7.046;2022-08-03T09:59:24;5.78;;;2.00;;
5795;SDS011;2924;51.458;7.046;2022-08-03T10:01:50;4.50;;;1.88;;
5795;SDS011;2924;51.458;7.046;2022-08-03T10:04:16;1.80;;;1.35;;
5795;SDS011;2924;51.458;7.046;2022-08-03T10:06:45;4.30;;;1.48;;
5795;SDS011;2924;51.458;7.046;2022-08-03T10:09:30;4.00;;;1.50;;
5795;SDS011;2924;51.458;7.046;2022-08-03T10:11:56;4.50;;;1.65;;
5795;SDS011;2924;51.458;7.046;2022-08-03T10:14:23;3.15;;;1.80;;
5795;SDS011;2924;51.458;7.046;2022-08-03T10:16:54;7.07;;;2.15;;
5795;SDS011;2924;51.458;7.046;2022-08-03T10:19:20;8.82;;;2.00;;
5795;SDS011;2924;51.458;7.046;2022-08-03T10:21:47;13.93;;;1.75;;
5795;SDS011;2924;51.458;7.046;2022-08-03T10:24:22;3.50;;;2.05;;
5795;SDS011;2924;51.458;7.046;2022-08-03T10:26:50;6.90;;;2.53;;
5795;SDS011;2924;51.458;7.046;2022-08-03T10:29:19;5.05;;;1.70;;
5795;SDS011;2924;51.458;7.046;2022-08-03T10:31:48;18.27;;;2.10;;
5795;SDS011;2924;51.458;7.046;2022-08-03T10:34:21;3.50;;;1.50;;
5795;SDS011;2924;51.458;7.046;2022-08-03T10:36:48;8.45;;;1.50;;
5795;SDS011;2924;51.458;7.046;2022-08-03T10:39:18;11.45;;;2.30;;
5795;SDS011;2924;51.458;7.046;2022-08-03T10:41:45;7.22;;;1.70;;
5795;SDS011;2924;51.458;7.046;2022-08-03T10:44:15;3.97;;;1.98;;
5795;SDS011;2924;51.458;7.046;2022-08-03T10:46:42;7.10;;;1.38;;
5795;SDS011;2924;51.458;7.046;2022-08-03T10:49:13;5.97;;;1.65;;
5795;SDS011;2924;51.458;7.046;2022-08-03T10:51:41;3.80;;;1.83;;
5795;SDS011;2924;51.458;7.046;2022-08-03T10:56:59;5.07;;;1.30;;
5795;SDS011;2924;51.458;7.046;2022-08-03T11:02:14;3.72;;;1.48;;
5795;SDS011;2924;51.458;7.046;2022-08-03T11:04:40;1.83;;;1.20;;
5795;SDS011;2924;51.458;7.046;2022-08-03T11:09:47;3.35;;;1.40;;
5795;SDS011;2924;51.458;7.046;2022-08-03T11:14:53;6.13;;;2.15;;
5795;SDS011;2924;51.458;7.046;2022-08-03T11:17:20;5.10;;;1.65;;
5795;SDS011;2924;51.458;7.046;2022-08-03T11:19:47;6.78;;;2.20;;
5795;SDS011;2924;51.458;7.046;2022-08-03T11:22:14;5.97;;;2.30;;
5795;SDS011;2924;51.458;7.046;2022-08-03T11:30:33;8.38;;;1.45;;
5795;SDS011;2924;51.458;7.046;2022-08-03T11:32:59;3.78;;;1.58;;
5795;SDS011;2924;51.458;7.046;2022-08-03T11:35:29;5.68;;;1.70;;
5795;SDS011;2924;51.458;7.046;2022-08-03T11:42:58;7.25;;;1.50;;
5795;SDS011;2924;51.458;7.046;2022-08-03T11:45:24;3.47;;;1.40;;
5795;SDS011;2924;51.458;7.046;2022-08-03T11:47:51;7.57;;;2.60;;
5795;SDS011;2924;51.458;7.046;2022-08-03T11:50:19;4.75;;;1.50;;
5795;SDS011;2924;51.458;7.046;2022-08-03T11:52:47;12.52;;;2.08;;
5795;SDS011;2924;51.458;7.046;2022-08-03T11:55:14;7.20;;;1.30;;
5795;SDS011;2924;51.458;7.046;2022-08-03T11:57:45;4.93;;;1.30;;
5795;SDS011;2924;51.458;7.046;2022-08-03T12:00:22;7.65;;;1.48;;
5795;SDS011;2924;51.458;7.046;2022-08-03T12:02:59;5.78;;;2.03;;
5795;SDS011;2924;51.458;7.046;2022-08-03T12:07:59;3.67;;;0.93;;
5795;SDS011;2924;51.458;7.046;2022-08-03T12:10:24;1.63;;;1.33;;
5795;SDS011;2924;51.458;7.046;2022-08-03T12:12:57;8.15;;;1.23;;
5795;SDS011;2924;51.458;7.046;2022-08-03T12:15:27;1.55;;;1.40;;
5795;SDS011;2924;51.458;7.046;2022-08-03T12:17:55;3.85;;;1.30;;
5795;SDS011;2924;51.458;7.046;2022-08-03T12:20:23;3.75;;;1.55;;
5795;SDS011;2924;51.458;7.046;2022-08-03T12:22:50;1.65;;;0.70;;
5795;SDS011;2924;51.458;7.046;2022-08-03T12:25:23;4.15;;;1.60;;
5795;SDS011;2924;51.458;7.046;2022-08-03T12:27:50;4.38;;;1.45;;
5795;SDS011;2924;51.458;7.046;2022-08-03T12:30:17;2.45;;;1.10;;
5795;SDS011;2924;51.458;7.046;2022-08-03T12:32:43;2.25;;;1.13;;
5795;SDS011;2924;51.458;7.046;2022-08-03T12:35:20;4.32;;;1.05;;
5795;SDS011;2924;51.458;7.046;2022-08-03T12:37:50;5.80;;;1.35;;
5795;SDS011;2924;51.458;7.046;2022-08-03T12:40:25;4.25;;;1.50;;
5795;SDS011;2924;51.458;7.046;2022-08-03T12:42:51;4.30;;;1.27;;
5795;SDS011;2924;51.458;7.046;2022-08-03T12:45:20;5.18;;;1.30;;
5795;SDS011;2924;51.458;7.046;2022-08-03T12:47:55;2.03;;;1.30;;
5795;SDS011;2924;51.458;7.046;2022-08-03T12:52:54;2.58;;;1.20;;
5795;SDS011;2924;51.458;7.046;2022-08-03T12:55:21;1.38;;;1.02;;
5795;SDS011;2924;51.458;7.046;2022-08-03T12:57:47;2.08;;;1.50;;
5795;SDS011;2924;51.458;7.046;2022-08-03T13:00:14;3.90;;;1.55;;
5795;SDS011;2924;51.458;7.046;2022-08-03T13:02:41;3.80;;;1.45;;
5795;SDS011;2924;51.458;7.046;2022-08-03T13:05:10;4.75;;;1.77;;
5795;SDS011;2924;51.458;7.046;2022-08-03T13:07:43;2.50;;;1.10;;
5795;SDS011;2924;51.458;7.046;2022-08-03T13:10:11;2.90;;;1.27;;
5795;SDS011;2924;51.458;7.046;2022-08-03T13:12:51;2.05;;;1.23;;
5795;SDS011;2924;51.458;7.046;2022-08-03T13:15:17;2.40;;;1.40;;
5795;SDS011;2924;51.458;7.046;2022-08-03T13:17:43;2.28;;;1.38;;
5795;SDS011;2924;51.458;7.046;2022-08-03T13:20:09;3.17;;;0.88;;
5795;SDS011;2924;51.458;7.046;2022-08-03T13:22:35;10.55;;;1.10;;
5795;SDS011;2924;51.458;7.046;2022-08-03T13:25:01;2.45;;;0.85;;
5795;SDS011;2924;51.458;7.046;2022-08-03T13:27:27;1.10;;;0.80;;
5795;SDS011;2924;51.458;7.046;2022-08-03T13:29:54;2.88;;;1.00;;
5795;SDS011;2924;51.458;7.046;2022-08-03T13:32:20;0.95;;;0.82;;
5795;SDS011;2924;51.458;7.046;2022-08-03T13:34:46;3.90;;;1.13;;
5795;SDS011;2924;51.458;7.046;2022-08-03T13:37:13;1.75;;;0.93;;
5795;SDS011;2924;51.458;7.046;2022-08-03T13:39:39;4.88;;;1.35;;
5795;SDS011;2924;51.458;7.046;2022-08-03T13:42:05;6.72;;;1.40;;
5795;SDS011;2924;51.458;7.046;2022-08-03T13:44:31;1.45;;;0.88;;
5795;SDS011;2924;51.458;7.046;2022-08-03T13:46:57;1.90;;;1.00;;
5795;SDS011;2924;51.458;7.046;2022-08-03T13:49:25;1.52;;;1.38;;
5795;SDS011;2924;51.458;7.046;2022-08-03T13:51:51;5.32;;;1.95;;
5795;SDS011;2924;51.458;7.046;2022-08-03T13:54:17;1.20;;;1.08;;
5795;SDS011;2924;51.458;7.046;2022-08-03T13:56:43;5.47;;;1.50;;
5795;SDS011;2924;51.458;7.046;2022-08-03T13:59:14;2.28;;;1.05;;
5795;SDS011;2924;51.458;7.046;2022-08-03T14:01:40;3.90;;;1.00;;
5795;SDS011;2924;51.458;7.046;2022-08-03T14:04:05;4.50;;;1.85;;
5795;SDS011;2924;51.458;7.046;2022-08-03T14:06:31;2.20;;;1.45;;
5795;SDS011;2924;51.458;7.046;2022-08-03T14:08:57;3.90;;;1.13;;
5795;SDS011;2924;51.458;7.046;2022-08-03T14:11:22;2.13;;;1.58;;
5795;SDS011;2924;51.458;7.046;2022-08-03T14:13:48;5.25;;;1.58;;
5795;SDS011;2924;51.458;7.046;2022-08-03T14:16:14;4.70;;;1.70;;
5795;SDS011;2924;51.458;7.046;2022-08-03T14:18:40;1.35;;;1.23;;
5795;SDS011;2924;51.458;7.046;2022-08-03T14:21:06;5.75;;;1.20;;
5795;SDS011;2924;51.458;7.046;2022-08-03T14:23:32;2.35;;;1.10;;
5795;SDS011;2924;51.458;7.046;2022-08-03T14:25:59;4.57;;;1.60;;
5795;SDS011;2924;51.458;7.046;2022-08-03T14:28:25;3.00;;;1.42;;
5795;SDS011;2924;51.458;7.046;2022-08-03T14:30:51;3.78;;;1.20;;
5795;SDS011;2924;51.458;7.046;2022-08-03T14:33:18;2.72;;;1.58;;
5795;SDS011;2924;51.458;7.046;2022-08-03T14:35:44;8.13;;;1.73;;
5795;SDS011;2924;51.458;7.046;2022-08-03T14:38:10;9.93;;;1.40;;
5795;SDS011;2924;51.458;7.046;2022-08-03T14:40:36;1.88;;;1.48;;
5795;SDS011;2924;51.458;7.046;2022-08-03T14:43:01;2.13;;;0.95;;
5795;SDS011;2924;51.458;7.046;2022-08-03T14:45:27;4.38;;;1.40;;
5795;SDS011;2924;51.458;7.046;2022-08-03T14:47:53;2.10;;;1.02;;
5795;SDS011;2924;51.458;7.046;2022-08-03T14:50:19;3.90;;;1.38;;
5795;SDS011;2924;51.458;7.046;2022-08-03T14:52:45;4.80;;;1.20;;
5795;SDS011;2924;51.458;7.046;2022-08-03T14:55:11;2.78;;;1.20;;
5795;SDS011;2924;51.458;7.046;2022-08-03T14:57:36;6.30;;;2.05;;
5795;SDS011;2924;51.458;7.046;2022-08-03T15:00:03;4.30;;;1.40;;
5795;SDS011;2924;51.458;7.046;2022-08-03T15:02:29;6.68;;;1.23;;
5795;SDS011;2924;51.458;7.046;2022-08-03T15:04:55;3.17;;;1.40;;
5795;SDS011;2924;51.458;7.046;2022-08-03T15:07:21;4.63;;;1.52;;
5795;SDS011;2924;51.458;7.046;2022-08-03T15:09:46;4.65;;;1.40;;
5795;SDS011;2924;51.458;7.046;2022-08-03T15:12:12;5.55;;;1.35;;
5795;SDS011;2924;51.458;7.046;2022-08-03T15:14:38;2.90;;;1.00;;
5795;SDS011;2924;51.458;7.046;2022-08-03T15:17:04;1.35;;;1.10;;
5795;SDS011;2924;51.458;7.046;2022-08-03T15:19:30;5.50;;;1.30;;
5795;SDS011;2924;51.458;7.046;2022-08-03T15:21:56;2.25;;;0.95;;
5795;SDS011;2924;51.458;7.046;2022-08-03T15:24:22;3.88;;;1.52;;
5795;SDS011;2924;51.458;7.046;2022-08-03T15:26:48;3.13;;;1.10;;
5795;SDS011;2924;51.458;7.046;2022-08-03T15:29:14;3.28;;;1.48;;
5795;SDS011;2924;51.458;7.046;2022-08-03T15:31:40;5.75;;;1.35;;
5795;SDS011;2924;51.458;7.046;2022-08-03T15:34:05;5.78;;;1.35;;
5795;SDS011;2924;51.458;7.046;2022-08-03T15:36:31;2.63;;;1.50;;
5795;SDS011;2924;51.458;7.046;2022-08-03T15:38:57;3.17;;;1.30;;
5795;SDS011;2924;51.458;7.046;2022-08-03T15:41:23;4.15;;;1.17;;
5795;SDS011;2924;51.458;7.046;2022-08-03T15:43:49;1.67;;;1.02;;
5795;SDS011;2924;51.458;7.046;2022-08-03T15:46:16;2.33;;;1.27;;
5795;SDS011;2924;51.458;7.046;2022-08-03T15:48:43;3.65;;;1.13;;
5795;SDS011;2924;51.458;7.046;2022-08-03T15:51:09;2.25;;;0.93;;
5795;SDS011;2924;51.458;7.046;2022-08-03T15:53:34;2.03;;;1.05;;
5795;SDS011;2924;51.458;7.046;2022-08-03T15:56:01;5.50;;;1.20;;